Crystal Hills, Colorado
Current Conditions -  °F | °C
As of 3:56 PM on Friday 31 Oct 2014 (Local Time) from KCWN Reporting Station
Broken Clouds Broken Clouds  
Wind Chill: 40°   Ceiling: 23000
Heat Index: 45°   Visibility: 10mi
Dew Point: 28°   Wind: 9mph
Humidity: 52%   Direction: 150°SSE
Pressure: 30.21"   Gusts: 18mph
Location:  38.8344°N, 104.938°W
Report Text: KCWN 312156Z AUTO 15008G16KT 10SM BKN230 07/M02 A3021 RMK AO2 SLP218 T00711023
Loading
Personal Weather Stations






























Interactive Weather Map
Tropical Storm Tracking
New forecast layout! Learn more

10-Day Weather Forecast

Advertisements
Track Severe Weather on mobile